Time;durP1;ratioP1;P1;durP2;ratioP2;P2;SDS_P1;SDS_P2;PMS_P1;PMS_P2;Temp;Humidity;BMP_temperature;BMP_pressure;BME280_temperature;BME280_humidity;BME280_pressure;Samples;Min_cycle;Max_cycle;Signal;HPM_P1;HPM_P2
2021/08/24 00:02:04;;;;;;;2.97;1.75;;;20.40;51.70;;;;;;5059651;28;20197;-85
2021/08/24 00:04:30;;;;;;;2.60;2.03;;;20.30;51.80;;;;;;4991906;28;20183;-85
2021/08/24 00:07:01;;;;;;;2.47;1.98;;;20.30;51.70;;;;;;5024980;28;20633;-87
2021/08/24 00:09:31;;;;;;;3.25;2.30;;;20.40;51.90;;;;;;5077085;28;20183;-86
2021/08/24 00:12:03;;;;;;;2.42;1.80;;;20.30;51.90;;;;;;5092409;28;20187;-86
2021/08/24 00:14:44;;;;;;;2.60;1.88;;;20.30;51.90;;;;;;5060098;28;20185;-85
2021/08/24 00:17:14;;;;;;;2.72;2.13;;;20.30;51.80;;;;;;5091391;28;20187;-86
2021/08/24 00:19:40;;;;;;;2.70;2.00;;;20.30;51.80;;;;;;5088910;28;20179;-87
2021/08/24 00:22:12;;;;;;;2.60;2.03;;;20.30;51.80;;;;;;5124452;28;20171;-86
2021/08/24 00:24:43;;;;;;;2.70;1.90;;;20.30;51.80;;;;;;5107339;28;20180;-85
2021/08/24 00:27:15;;;;;;;3.53;2.30;;;20.30;51.80;;;;;;5107148;28;20240;-86
2021/08/24 00:29:41;;;;;;;3.15;2.05;;;20.30;51.80;;;;;;5090812;28;20183;-87
2021/08/24 00:32:12;;;;;;;2.38;1.88;;;20.40;52.00;;;;;;5107725;28;20262;-86
2021/08/24 00:34:47;;;;;;;2.47;2.00;;;20.30;51.90;;;;;;5090198;28;20187;-87
2021/08/24 00:37:19;;;;;;;2.30;1.95;;;20.30;51.90;;;;;;5090154;28;20213;-85
2021/08/24 00:39:49;;;;;;;3.00;2.00;;;20.30;51.90;;;;;;5090976;28;20208;-86
2021/08/24 00:42:20;;;;;;;2.47;1.80;;;20.30;51.90;;;;;;5089685;28;20184;-85
2021/08/24 00:44:48;;;;;;;3.22;2.05;;;20.30;52.00;;;;;;5089721;28;20176;-87
2021/08/24 00:47:21;;;;;;;2.72;2.03;;;20.20;51.90;;;;;;5108296;28;20163;-85
2021/08/24 00:49:53;;;;;;;3.10;2.20;;;20.30;51.90;;;;;;5107587;28;20179;-86
2021/08/24 00:52:23;;;;;;;4.05;2.70;;;20.30;51.90;;;;;;5107298;28;20580;-86
2021/08/24 00:54:56;;;;;;;2.80;2.05;;;20.30;51.90;;;;;;5090795;28;20184;-86
2021/08/24 00:57:23;;;;;;;3.53;2.17;;;20.30;51.90;;;;;;5107275;28;20172;-86
2021/08/24 00:59:49;;;;;;;2.38;1.77;;;20.20;51.90;;;;;;5125576;28;20175;-84
2021/08/24 01:02:20;;;;;;;2.63;2.20;;;20.30;52.00;;;;;;5107253;28;20192;-86
2021/08/24 01:04:53;;;;;;;3.00;2.17;;;20.20;51.90;;;;;;5090980;28;20175;-87
2021/08/24 01:07:36;;;;;;;3.03;2.03;;;20.30;52.70;;;;;;5089718;28;20187;-85
2021/08/24 01:10:21;;;;;;;2.90;2.00;;;20.30;52.10;;;;;;5106923;28;20175;-86
2021/08/24 01:13:16;;;;;;;3.20;2.30;;;20.20;52.10;;;;;;5091337;28;20535;-86
2021/08/24 01:15:59;;;;;;;3.13;2.05;;;20.20;52.10;;;;;;5089946;28;20229;-85
2021/08/24 01:18:51;;;;;;;2.53;1.85;;;20.10;52.10;;;;;;5025127;28;20226;-86
2021/08/24 01:21:36;;;;;;;2.60;1.98;;;20.30;52.20;;;;;;5042068;28;20650;-87
2021/08/24 01:24:14;;;;;;;3.28;2.38;;;20.20;52.10;;;;;;5041000;28;20215;-86
2021/08/24 01:27:01;;;;;;;3.38;2.30;;;20.20;52.10;;;;;;5009052;28;20258;-87
2021/08/24 01:29:37;;;;;;;2.35;1.80;;;20.20;52.20;;;;;;4994794;28;20235;-86
2021/08/24 01:32:24;;;;;;;3.47;2.20;;;20.20;52.20;;;;;;5043489;28;20183;-86
2021/08/24 01:35:13;;;;;;;2.47;2.00;;;20.20;52.10;;;;;;5059532;28;20189;-86
2021/08/24 01:38:04;;;;;;;3.40;2.17;;;20.20;52.10;;;;;;5044868;28;20268;-85
2021/08/24 01:40:45;;;;;;;3.20;2.00;;;20.30;52.30;;;;;;5000569;28;20182;-87
2021/08/24 01:43:17;;;;;;;2.72;2.08;;;20.20;52.20;;;;;;5027311;28;20196;-87
2021/08/24 01:45:51;;;;;;;2.90;2.10;;;20.20;52.20;;;;;;4979509;28;20214;-87
2021/08/24 01:48:33;;;;;;;3.38;2.10;;;20.20;52.20;;;;;;5011801;28;20187;-86
2021/08/24 01:51:01;;;;;;;2.58;2.00;;;20.20;52.20;;;;;;5079214;28;20569;-85
2021/08/24 01:53:41;;;;;;;2.90;2.15;;;20.20;52.30;;;;;;5044775;28;20155;-85
2021/08/24 01:56:16;;;;;;;2.67;1.92;;;20.20;52.30;;;;;;5043480;28;20159;-85
2021/08/24 01:59:02;;;;;;;3.25;2.28;;;20.20;52.20;;;;;;5010685;28;20213;-86
2021/08/24 02:01:40;;;;;;;3.70;2.00;;;20.20;52.30;;;;;;5027263;28;20201;-86
2021/08/24 02:04:16;;;;;;;2.65;1.85;;;20.20;52.30;;;;;;4995134;28;20182;-86
2021/08/24 02:06:42;;;;;;;2.45;2.03;;;20.20;52.30;;;;;;4995724;28;20740;-87
2021/08/24 02:09:13;;;;;;;3.90;2.30;;;20.20;52.30;;;;;;5043292;28;20719;-86
2021/08/24 02:11:43;;;;;;;2.42;2.08;;;20.20;52.40;;;;;;5044094;28;20307;-85
2021/08/24 02:14:14;;;;;;;2.95;2.10;;;20.20;52.30;;;;;;4994295;28;20186;-84
2021/08/24 02:16:45;;;;;;;3.15;2.10;;;20.20;52.40;;;;;;4974509;28;20223;-86
2021/08/24 02:19:23;;;;;;;2.92;1.90;;;20.20;52.40;;;;;;4973973;28;20215;-86
2021/08/24 02:22:03;;;;;;;3.10;2.15;;;20.20;52.40;;;;;;5074890;28;20179;-87
2021/08/24 02:24:36;;;;;;;2.28;1.80;;;20.20;52.40;;;;;;5025322;28;20151;-86
2021/08/24 02:27:09;;;;;;;2.50;1.85;;;20.20;52.50;;;;;;4975190;28;20175;-86
2021/08/24 02:29:39;;;;;;;2.92;1.83;;;20.20;52.50;;;;;;5074430;28;20225;-86
2021/08/24 02:32:14;;;;;;;3.03;2.03;;;20.20;52.50;;;;;;5075566;28;20179;-87
2021/08/24 02:34:52;;;;;;;2.75;2.10;;;20.20;52.50;;;;;;4975224;28;20182;-85
2021/08/24 02:37:29;;;;;;;3.33;2.20;;;20.10;52.50;;;;;;4975600;28;20210;-86
2021/08/24 02:40:08;;;;;;;3.10;2.30;;;20.10;52.50;;;;;;5024237;28;20159;-86
2021/08/24 02:42:57;;;;;;;3.45;2.08;;;20.20;52.50;;;;;;4990830;28;20669;-85
2021/08/24 02:45:36;;;;;;;2.92;2.00;;;20.20;52.50;;;;;;4975509;28;20171;-87
2021/08/24 02:48:08;;;;;;;2.47;2.05;;;20.20;52.60;;;;;;4975200;28;20678;-86
2021/08/24 02:50:42;;;;;;;3.25;2.10;;;20.10;52.60;;;;;;4975054;28;20603;-86
2021/08/24 02:53:14;;;;;;;2.63;1.90;;;20.20;52.60;;;;;;4975150;28;20186;-86
2021/08/24 02:55:45;;;;;;;3.10;1.90;;;20.10;52.60;;;;;;4990388;28;20195;-86
2021/08/24 02:58:12;;;;;;;2.50;2.00;;;20.20;52.70;;;;;;5005969;28;20218;-86
2021/08/24 03:00:38;;;;;;;2.40;2.05;;;20.20;52.60;;;;;;5023931;28;20180;-85
2021/08/24 03:03:08;;;;;;;2.45;1.88;;;20.20;52.60;;;;;;5007531;28;20195;-87
2021/08/24 03:05:38;;;;;;;3.42;2.13;;;20.20;52.60;;;;;;5051404;28;20181;-85
2021/08/24 03:08:15;;;;;;;2.88;2.20;;;20.20;52.60;;;;;;4935605;28;20256;-86
2021/08/24 03:10:42;;;;;;;3.10;1.98;;;20.20;53.20;;;;;;5018264;28;20188;-86
2021/08/24 03:13:22;;;;;;;3.10;2.22;;;20.10;52.60;;;;;;4967099;28;20169;-86
2021/08/24 03:16:14;;;;;;;2.97;2.08;;;20.20;52.80;;;;;;4967344;28;20216;-87
2021/08/24 03:18:50;;;;;;;2.30;2.05;;;20.20;52.70;;;;;;4986422;28;20233;-87
2021/08/24 03:21:19;;;;;;;2.70;2.08;;;20.10;52.60;;;;;;4986970;28;20180;-85
2021/08/24 03:23:45;;;;;;;2.88;2.10;;;20.10;52.70;;;;;;4970268;28;20172;-86
2021/08/24 03:26:11;;;;;;;2.72;2.05;;;20.10;52.60;;;;;;4970709;28;20191;-86
2021/08/24 03:28:40;;;;;;;3.50;2.10;;;20.20;52.70;;;;;;4970234;28;20209;-86
2021/08/24 03:31:13;;;;;;;3.22;2.20;;;20.10;52.70;;;;;;4971054;28;20234;-86
2021/08/24 03:33:45;;;;;;;3.38;2.25;;;20.10;52.70;;;;;;4969945;28;20192;-87
2021/08/24 03:36:17;;;;;;;3.30;1.92;;;20.10;52.70;;;;;;4984376;28;20190;-84
2021/08/24 03:38:47;;;;;;;2.58;1.90;;;20.10;52.70;;;;;;5008819;28;20230;-86
2021/08/24 03:41:13;;;;;;;3.40;2.20;;;20.10;52.70;;;;;;4992774;28;20182;-86
2021/08/24 03:43:44;;;;;;;3.08;2.30;;;20.10;52.70;;;;;;5043063;28;20175;-86
2021/08/24 03:46:14;;;;;;;2.95;2.00;;;20.10;52.80;;;;;;4977328;28;20277;-86
2021/08/24 03:48:44;;;;;;;2.70;1.85;;;20.10;52.80;;;;;;5077313;28;20187;-86
2021/08/24 03:51:10;;;;;;;2.67;2.00;;;20.10;52.70;;;;;;5077086;28;20183;-85
2021/08/24 03:53:36;;;;;;;3.20;2.25;;;20.10;52.70;;;;;;5025575;28;20194;-87
2021/08/24 03:56:04;;;;;;;3.47;2.17;;;20.10;52.80;;;;;;5042465;28;20175;-85
2021/08/24 03:58:30;;;;;;;2.75;1.90;;;20.10;52.70;;;;;;5025452;28;20209;-86
2021/08/24 04:00:56;;;;;;;2.95;2.00;;;20.10;52.80;;;;;;5025925;28;20170;-85
2021/08/24 04:03:30;;;;;;;2.90;2.13;;;20.10;52.80;;;;;;5025047;28;20181;-86
2021/08/24 04:06:00;;;;;;;2.58;2.00;;;20.10;52.80;;;;;;5007401;28;20185;-87
2021/08/24 04:08:26;;;;;;;2.95;2.13;;;20.10;52.80;;;;;;5024169;28;20177;-84
2021/08/24 04:10:56;;;;;;;3.17;1.98;;;20.10;52.80;;;;;;5039264;28;20163;-85
2021/08/24 04:13:22;;;;;;;3.33;2.20;;;20.10;52.80;;;;;;5006738;28;20175;-85
2021/08/24 04:15:48;;;;;;;4.63;2.17;;;20.10;52.80;;;;;;5038177;28;20251;-84
2021/08/24 04:18:18;;;;;;;2.97;2.00;;;20.10;52.80;;;;;;5021085;28;20198;-85
2021/08/24 04:20:48;;;;;;;2.67;1.77;;;20.10;52.80;;;;;;5003267;28;20230;-85
2021/08/24 04:23:20;;;;;;;2.58;1.92;;;20.10;52.70;;;;;;5003491;28;20248;-86
2021/08/24 04:25:46;;;;;;;3.45;1.80;;;20.10;52.60;;;;;;5019894;28;20641;-84
2021/08/24 04:28:12;;;;;;;3.53;2.00;;;20.10;52.70;;;;;;5019500;28;20257;-83
2021/08/24 04:30:47;;;;;;;3.25;2.20;;;20.10;52.70;;;;;;5019496;28;20213;-83
2021/08/24 04:33:13;;;;;;;2.13;1.90;;;20.10;52.60;;;;;;5002290;28;20182;-85
2021/08/24 04:35:39;;;;;;;2.67;1.70;;;20.10;52.50;;;;;;5018597;28;20211;-85
2021/08/24 04:38:10;;;;;;;3.17;2.13;;;20.10;52.60;;;;;;5034356;28;20209;-84
2021/08/24 04:40:36;;;;;;;2.30;1.80;;;20.10;52.50;;;;;;4984795;28;20495;-84
2021/08/24 04:43:07;;;;;;;2.45;1.92;;;20.10;52.50;;;;;;5018423;28;20602;-85
2021/08/24 04:45:37;;;;;;;2.70;1.70;;;20.20;52.40;;;;;;5069222;28;20548;-83
2021/08/24 04:48:03;;;;;;;2.67;2.00;;;20.20;52.30;;;;;;5052738;28;20193;-85
2021/08/24 04:50:29;;;;;;;2.40;1.80;;;20.20;52.50;;;;;;5034806;28;20174;-85
2021/08/24 04:52:59;;;;;;;2.90;1.88;;;20.20;52.30;;;;;;5018259;28;20598;-83
2021/08/24 04:55:29;;;;;;;2.40;1.75;;;20.20;52.40;;;;;;5052761;28;20186;-84
2021/08/24 04:57:55;;;;;;;2.60;1.80;;;20.10;52.40;;;;;;5069205;28;20294;-85
2021/08/24 05:00:21;;;;;;;2.50;1.73;;;20.20;52.40;;;;;;5017782;28;20159;-85
2021/08/24 05:02:47;;;;;;;2.50;1.73;;;20.20;52.20;;;;;;5034368;28;20159;-85
2021/08/24 05:05:13;;;;;;;3.05;1.85;;;20.20;52.20;;;;;;5017764;28;20170;-83
2021/08/24 05:07:39;;;;;;;2.60;1.80;;;20.20;52.20;;;;;;5037700;28;20186;-85
2021/08/24 05:10:07;;;;;;;2.25;1.70;;;20.20;52.20;;;;;;5037271;28;20168;-84
2021/08/24 05:12:32;;;;;;;2.30;1.70;;;20.20;52.10;;;;;;5021427;28;20165;-84
2021/08/24 05:14:58;;;;;;;2.85;1.70;;;20.20;52.20;;;;;;5039416;28;20226;-85
2021/08/24 05:17:24;;;;;;;2.55;1.80;;;20.20;52.30;;;;;;5008134;28;20631;-84
2021/08/24 05:19:54;;;;;;;2.40;1.60;;;20.20;52.10;;;;;;5040849;28;20154;-85
2021/08/24 05:22:23;;;;;;;2.63;1.60;;;20.20;52.10;;;;;;5060086;28;20672;-83
2021/08/24 05:24:48;;;;;;;3.05;1.70;;;20.30;52.30;;;;;;5030718;28;20170;-83
2021/08/24 05:27:14;;;;;;;1.85;1.50;;;20.20;52.30;;;;;;5013232;28;20170;-83
2021/08/24 05:29:42;;;;;;;3.50;1.73;;;20.20;52.30;;;;;;5007026;28;20187;-82
2021/08/24 05:32:08;;;;;;;1.95;1.65;;;20.30;52.30;;;;;;4981525;28;20188;-81
2021/08/24 05:34:34;;;;;;;2.60;1.58;;;20.30;52.30;;;;;;4987448;28;20191;-83
2021/08/24 05:37:00;;;;;;;2.10;1.70;;;20.20;52.40;;;;;;4971469;28;20199;-82
2021/08/24 05:39:26;;;;;;;2.72;1.90;;;20.20;52.40;;;;;;4988369;28;20280;-82
2021/08/24 05:41:53;;;;;;;2.15;1.80;;;20.20;52.40;;;;;;5004359;28;20153;-82
2021/08/24 05:44:21;;;;;;;3.42;2.00;;;20.20;52.40;;;;;;4971512;28;20188;-83
2021/08/24 05:46:48;;;;;;;2.28;1.90;;;20.30;52.30;;;;;;4987194;28;20552;-84
2021/08/24 05:49:18;;;;;;;2.40;1.85;;;20.30;52.40;;;;;;4986845;28;20191;-83
2021/08/24 05:51:43;;;;;;;2.30;1.67;;;20.30;52.40;;;;;;4986681;28;20246;-83
2021/08/24 05:54:09;;;;;;;2.45;1.77;;;20.30;52.30;;;;;;4970453;28;20597;-83
2021/08/24 05:56:35;;;;;;;2.78;1.95;;;20.30;52.30;;;;;;4971006;28;20214;-83
2021/08/24 05:59:01;;;;;;;2.88;1.63;;;20.30;52.10;;;;;;4987436;28;20211;-82
2021/08/24 06:01:29;;;;;;;2.13;1.75;;;20.40;52.10;;;;;;5024929;28;20214;-83
2021/08/24 06:03:57;;;;;;;2.50;1.80;;;20.40;52.20;;;;;;5031171;28;20194;-82
2021/08/24 06:06:36;;;;;;;2.95;1.90;;;20.40;52.00;;;;;;5030832;28;20677;-83
2021/08/24 06:09:10;;;;;;;2.97;2.00;;;20.40;52.00;;;;;;5031307;28;20193;-82
2021/08/24 06:11:44;;;;;;;2.30;1.50;;;20.40;52.20;;;;;;5030758;28;20176;-83
2021/08/24 06:14:11;;;;;;;2.70;1.80;;;20.30;52.20;;;;;;5004112;28;20197;-82
2021/08/24 06:16:41;;;;;;;2.38;1.50;;;20.40;52.30;;;;;;5014878;28;20244;-82
2021/08/24 06:19:09;;;;;;;1.92;1.60;;;20.40;52.30;;;;;;5062318;28;20211;-81
2021/08/24 06:21:38;;;;;;;2.20;1.77;;;20.40;52.20;;;;;;5010730;28;20167;-81
2021/08/24 06:24:11;;;;;;;2.22;1.70;;;20.40;52.10;;;;;;5009867;28;20171;-82
2021/08/24 06:26:42;;;;;;;2.20;1.58;;;20.40;52.20;;;;;;4992748;28;20194;-82
2021/08/24 06:29:13;;;;;;;2.20;1.50;;;20.40;52.10;;;;;;4994124;28;20549;-81
2021/08/24 06:31:46;;;;;;;2.72;1.52;;;20.40;52.10;;;;;;5014003;28;20544;-81
2021/08/24 06:34:19;;;;;;;2.55;1.80;;;20.50;52.20;;;;;;5061022;28;20187;-81
2021/08/24 06:36:51;;;;;;;2.40;1.75;;;20.40;52.20;;;;;;4993913;28;20182;-81
2021/08/24 06:39:23;;;;;;;2.40;1.60;;;20.40;52.10;;;;;;5009852;28;20214;-82
2021/08/24 06:41:56;;;;;;;1.80;1.50;;;20.40;52.20;;;;;;5044898;28;20249;-81
2021/08/24 06:44:29;;;;;;;2.30;1.55;;;20.50;52.20;;;;;;4993089;28;20187;-82
2021/08/24 06:47:02;;;;;;;2.55;1.85;;;20.50;52.10;;;;;;4977347;28;20178;-82
2021/08/24 06:49:34;;;;;;;3.13;1.65;;;20.40;52.20;;;;;;4977911;28;20518;-82
2021/08/24 06:52:06;;;;;;;2.30;1.60;;;20.40;52.30;;;;;;5094843;28;20186;-81
2021/08/24 06:54:37;;;;;;;2.65;1.65;;;20.40;52.30;;;;;;4977334;28;20186;-81
2021/08/24 06:57:10;;;;;;;3.15;1.92;;;20.40;52.10;;;;;;4993222;28;20205;-82
2021/08/24 06:59:44;;;;;;;3.25;2.20;;;20.50;52.30;;;;;;5061417;28;20218;-81
2021/08/24 07:02:16;;;;;;;3.22;1.80;;;20.30;52.30;;;;;;4977259;28;20195;-81
2021/08/24 07:04:49;;;;;;;2.47;1.67;;;20.40;52.40;;;;;;4993122;28;20221;-82
2021/08/24 07:07:22;;;;;;;1.73;1.58;;;20.40;52.30;;;;;;4993732;28;20213;-82
2021/08/24 07:09:56;;;;;;;2.42;1.80;;;20.40;52.30;;;;;;4993629;28;20250;-81
2021/08/24 07:12:27;;;;;;;2.53;1.90;;;20.40;52.30;;;;;;4992541;28;20197;-81
2021/08/24 07:14:52;;;;;;;2.10;1.60;;;20.50;51.90;;;;;;5061047;28;20194;-81
2021/08/24 07:17:25;;;;;;;2.22;1.70;;;20.50;51.80;;;;;;4993459;28;20182;-82
2021/08/24 07:19:58;;;;;;;3.65;1.92;;;20.60;51.70;;;;;;4961929;28;20202;-81
2021/08/24 07:22:27;;;;;;;2.40;1.65;;;20.60;51.80;;;;;;5008933;28;20209;-82
2021/08/24 07:25:00;;;;;;;2.50;1.70;;;20.50;51.90;;;;;;4992879;28;20281;-82
2021/08/24 07:27:30;;;;;;;2.20;1.80;;;20.50;52.10;;;;;;5044086;28;20183;-82
2021/08/24 07:30:02;;;;;;;2.40;1.60;;;20.50;52.00;;;;;;4975839;28;20190;-82
2021/08/24 07:32:32;;;;;;;1.85;1.50;;;20.50;52.10;;;;;;4976332;28;20637;-82
2021/08/24 07:35:02;;;;;;;2.00;1.38;;;20.50;52.10;;;;;;4992249;28;20210;-82
2021/08/24 07:37:31;;;;;;;2.63;1.58;;;20.50;51.90;;;;;;4976290;28;20186;-82
2021/08/24 07:40:00;;;;;;;2.15;1.55;;;20.50;52.00;;;;;;4976412;28;20210;-82
2021/08/24 07:42:28;;;;;;;1.80;1.30;;;20.50;51.90;;;;;;4975823;28;20207;-83
2021/08/24 07:45:01;;;;;;;2.17;1.40;;;20.40;52.00;;;;;;5043502;28;20265;-82
2021/08/24 07:47:30;;;;;;;2.50;1.55;;;20.50;52.20;;;;;;5077149;28;20250;-82
2021/08/24 07:49:58;;;;;;;1.48;1.17;;;20.50;51.90;;;;;;4959100;28;20207;-82
2021/08/24 07:52:27;;;;;;;2.45;1.20;;;20.50;51.90;;;;;;4974497;28;20206;-83
2021/08/24 07:54:56;;;;;;;4.07;1.52;;;20.50;52.00;;;;;;4973720;28;20187;-82
2021/08/24 07:57:21;;;;;;;2.33;1.55;;;20.50;51.90;;;;;;4983415;28;20281;-82
2021/08/24 07:59:48;;;;;;;2.42;1.50;;;20.40;51.90;;;;;;5030155;28;20229;-82
2021/08/24 08:02:17;;;;;;;2.08;1.30;;;20.40;52.00;;;;;;5007542;28;20271;-82
2021/08/24 08:04:44;;;;;;;1.92;1.38;;;20.50;52.70;;;;;;4978325;28;20189;-82
2021/08/24 08:07:11;;;;;;;1.48;1.15;;;20.50;52.00;;;;;;5048540;28;20177;-83
2021/08/24 08:09:38;;;;;;;2.40;1.48;;;20.40;51.90;;;;;;5014396;28;20174;-82
2021/08/24 08:12:04;;;;;;;1.48;1.23;;;20.40;51.90;;;;;;5029764;28;20246;-82
2021/08/24 08:14:34;;;;;;;2.08;1.58;;;20.50;52.00;;;;;;5046959;28;20162;-83
2021/08/24 08:17:01;;;;;;;1.75;1.20;;;20.40;52.10;;;;;;5098118;28;20237;-82
2021/08/24 08:19:28;;;;;;;2.85;1.27;;;20.40;52.20;;;;;;5064147;28;20182;-83
2021/08/24 08:21:54;;;;;;;1.67;1.40;;;20.40;52.40;;;;;;5029862;28;20169;-82
2021/08/24 08:24:20;;;;;;;1.80;1.40;;;20.30;52.50;;;;;;5029165;28;20170;-82
2021/08/24 08:26:51;;;;;;;1.80;1.30;;;20.40;52.60;;;;;;5029094;28;20170;-81
2021/08/24 08:29:17;;;;;;;2.33;1.50;;;20.30;52.80;;;;;;5080442;28;20254;-81
2021/08/24 08:31:49;;;;;;;1.88;1.23;;;20.30;52.60;;;;;;5029166;28;20229;-82
2021/08/24 08:34:16;;;;;;;1.50;1.27;;;20.30;52.50;;;;;;5097306;28;20194;-82
2021/08/24 08:36:43;;;;;;;1.63;1.40;;;20.40;52.50;;;;;;5027410;28;20170;-83
2021/08/24 08:39:09;;;;;;;1.73;1.30;;;20.30;52.50;;;;;;5042980;28;20268;-84
2021/08/24 08:42:12;;;;;;;1.60;1.40;;;20.30;52.40;;;;;;5038948;28;20193;-82
2021/08/24 08:45:07;;;;;;;1.95;1.30;;;20.40;52.30;;;;;;5039784;28;20498;-83
2021/08/24 08:48:01;;;;;;;1.88;1.40;;;20.40;52.30;;;;;;5086227;28;20226;-82
2021/08/24 08:50:48;;;;;;;1.83;1.40;;;20.30;52.40;;;;;;5046061;28;20159;-83
2021/08/24 08:53:32;;;;;;;2.10;1.50;;;20.30;52.50;;;;;;5028226;28;20165;-82
2021/08/24 08:56:31;;;;;;;1.48;1.25;;;20.20;52.50;;;;;;5064065;28;20155;-83
2021/08/24 08:59:18;;;;;;;2.00;1.40;;;20.30;52.60;;;;;;5044846;28;20197;-83
2021/08/24 09:02:25;;;;;;;2.17;1.65;;;20.20;52.70;;;;;;5028360;28;20170;-83
2021/08/24 09:04:55;;;;;;;1.88;1.30;;;20.30;52.60;;;;;;5032987;28;20170;-82
2021/08/24 09:07:38;;;;;;;1.98;1.38;;;20.30;52.40;;;;;;5027484;28;20190;-83
2021/08/24 09:10:11;;;;;;;1.88;1.30;;;20.30;52.30;;;;;;5076755;28;20553;-83
2021/08/24 09:12:40;;;;;;;2.20;1.33;;;20.40;52.40;;;;;;5009502;28;20214;-85
2021/08/24 09:15:08;;;;;;;1.92;1.40;;;20.30;52.10;;;;;;4998319;28;20193;-85
2021/08/24 09:17:41;;;;;;;1.63;1.30;;;20.40;52.00;;;;;;5032181;28;20166;-85
2021/08/24 09:20:27;;;;;;;2.05;1.42;;;20.40;51.80;;;;;;5066958;28;20704;-85
2021/08/24 09:23:02;;;;;;;1.67;1.48;;;20.30;51.90;;;;;;5015120;28;20190;-84
2021/08/24 09:25:57;;;;;;;2.38;1.50;;;20.30;52.00;;;;;;5066543;28;20193;-84
2021/08/24 09:28:30;;;;;;;1.67;1.30;;;20.20;52.80;;;;;;5008429;28;20182;-80
2021/08/24 09:30:59;;;;;;;1.73;1.50;;;20.20;51.90;;;;;;5097346;28;20182;-80
2021/08/24 09:33:29;;;;;;;2.05;1.42;;;20.30;51.80;;;;;;5095936;28;20182;-82
2021/08/24 09:36:00;;;;;;;2.40;1.50;;;20.30;51.70;;;;;;5096511;28;20209;-82
2021/08/24 09:38:31;;;;;;;2.72;1.50;;;20.40;51.70;;;;;;5094903;28;20218;-81
2021/08/24 09:41:19;;;;;;;1.60;1.20;;;20.30;51.60;;;;;;5095064;28;20215;-82
2021/08/24 09:43:53;;;;;;;2.13;1.45;;;20.40;51.80;;;;;;5108191;28;20565;-82
2021/08/24 09:46:33;;;;;;;3.63;1.33;;;20.30;51.60;;;;;;5089154;28;20186;-82
2021/08/24 09:49:05;;;;;;;1.88;1.45;;;20.30;52.40;;;;;;5092118;28;20190;-81
2021/08/24 09:51:44;;;;;;;1.58;1.25;;;20.40;51.80;;;;;;5096150;28;20206;-80
2021/08/24 09:54:29;;;;;;;1.60;1.40;;;20.40;51.70;;;;;;5031722;28;20177;-81
2021/08/24 09:57:20;;;;;;;2.47;1.60;;;20.30;51.70;;;;;;5031506;28;20226;-80
2021/08/24 09:59:54;;;;;;;1.75;1.33;;;20.30;51.60;;;;;;5094423;28;20206;-80
2021/08/24 10:02:37;;;;;;;2.35;1.42;;;20.30;51.50;;;;;;5032444;28;20241;-80
2021/08/24 10:05:11;;;;;;;1.98;1.42;;;20.40;51.40;;;;;;5031376;28;20174;-80
2021/08/24 10:07:44;;;;;;;2.15;1.50;;;20.40;51.30;;;;;;5098528;28;20277;-81
2021/08/24 10:10:32;;;;;;;1.85;1.30;;;20.50;51.20;;;;;;5099350;28;20178;-81
2021/08/24 10:13:00;;;;;;;1.65;1.27;;;20.40;51.20;;;;;;5030717;28;20185;-81
2021/08/24 10:15:28;;;;;;;1.88;1.15;;;20.40;51.50;;;;;;5046874;28;20210;-78
2021/08/24 10:18:14;;;;;;;2.28;1.45;;;20.30;51.40;;;;;;5030941;28;20190;-82
2021/08/24 10:21:05;;;;;;;2.22;1.60;;;20.40;51.40;;;;;;5046594;28;20162;-82
2021/08/24 10:23:37;;;;;;;1.25;1.13;;;20.40;51.20;;;;;;5031316;28;20229;-82
2021/08/24 10:26:10;;;;;;;2.10;1.50;;;20.40;51.10;;;;;;5031302;28;20182;-82
2021/08/24 10:28:52;;;;;;;1.95;1.40;;;20.50;51.10;;;;;;5098845;28;20186;-82
2021/08/24 10:31:38;;;;;;;2.15;1.50;;;20.40;51.20;;;;;;5094320;28;20186;-81
2021/08/24 10:34:34;;;;;;;2.28;1.65;;;20.30;51.10;;;;;;5014986;28;20257;-82
2021/08/24 10:37:15;;;;;;;1.77;1.33;;;20.40;51.20;;;;;;5057045;28;20241;-81
2021/08/24 10:39:43;;;;;;;2.00;1.60;;;20.40;51.10;;;;;;5048095;28;20189;-82
2021/08/24 10:42:27;;;;;;;1.90;1.38;;;20.40;51.00;;;;;;5099314;28;20633;-81
2021/08/24 10:44:59;;;;;;;2.03;1.40;;;20.30;50.90;;;;;;5032516;28;20234;-79
2021/08/24 10:47:48;;;;;;;2.17;1.55;;;20.40;50.70;;;;;;5098831;28;20206;-82
2021/08/24 10:50:24;;;;;;;1.92;1.38;;;20.50;50.70;;;;;;5029905;28;20203;-81
2021/08/24 10:53:01;;;;;;;1.98;1.40;;;20.40;50.50;;;;;;5098191;28;20205;-82
2021/08/24 10:55:31;;;;;;;2.50;1.60;;;20.50;50.60;;;;;;5081003;28;20201;-81
2021/08/24 10:58:11;;;;;;;2.15;1.52;;;20.50;50.50;;;;;;5097537;28;20206;-81
2021/08/24 11:01:01;;;;;;;1.90;1.50;;;20.50;50.50;;;;;;5032568;28;20231;-80
2021/08/24 11:03:49;;;;;;;2.28;1.55;;;20.50;50.50;;;;;;5016449;28;20178;-80
2021/08/24 11:06:41;;;;;;;2.40;1.67;;;20.50;50.30;;;;;;5030732;28;20179;-80
2021/08/24 11:09:34;;;;;;;1.83;1.27;;;20.50;50.40;;;;;;5064471;28;20573;-80
2021/08/24 11:12:12;;;;;;;2.67;1.65;;;20.50;50.10;;;;;;5106671;28;20186;-80
2021/08/24 11:15:13;;;;;;;1.70;1.45;;;20.50;50.80;;;;;;5111813;28;20257;-80
2021/08/24 11:18:13;;;;;;;2.05;1.58;;;20.50;50.30;;;;;;5047541;28;20556;-80
2021/08/24 11:20:48;;;;;;;1.88;1.45;;;20.50;50.20;;;;;;5070223;28;20189;-80
2021/08/24 11:23:43;;;;;;;2.85;1.60;;;20.50;50.40;;;;;;5029951;28;20177;-80
2021/08/24 11:26:18;;;;;;;1.85;1.48;;;20.50;50.30;;;;;;5108441;28;20175;-80
2021/08/24 11:29:11;;;;;;;2.20;1.70;;;20.50;50.90;;;;;;5013636;28;20203;-80
2021/08/24 11:31:52;;;;;;;2.33;1.70;;;20.60;50.10;;;;;;5033639;28;20166;-80
2021/08/24 11:34:26;;;;;;;2.00;1.50;;;20.50;50.10;;;;;;5014235;28;20186;-79
2021/08/24 11:36:59;;;;;;;2.22;1.63;;;20.40;50.30;;;;;;5115646;28;20186;-79
2021/08/24 11:39:49;;;;;;;1.83;1.42;;;20.30;50.50;;;;;;5013790;28;20307;-81
2021/08/24 11:42:33;;;;;;;2.05;1.50;;;20.30;51.20;;;;;;5059963;28;20182;-80
2021/08/24 11:45:00;;;;;;;2.63;1.60;;;20.30;50.50;;;;;;5015531;28;20181;-80
2021/08/24 11:47:37;;;;;;;2.00;1.40;;;20.30;50.30;;;;;;5115609;28;20193;-80
2021/08/24 11:50:09;;;;;;;2.00;1.60;;;20.40;50.30;;;;;;5014090;28;20225;-80
2021/08/24 11:52:49;;;;;;;2.08;1.55;;;20.40;50.10;;;;;;5030358;28;20178;-80
2021/08/24 11:55:21;;;;;;;2.08;1.65;;;20.30;50.30;;;;;;5079287;28;20261;-79
2021/08/24 11:57:53;;;;;;;2.03;1.50;;;20.40;50.30;;;;;;5029945;28;20166;-80
2021/08/24 12:00:19;;;;;;;1.77;1.40;;;20.40;50.30;;;;;;5046459;28;20150;-80
2021/08/24 12:02:50;;;;;;;1.88;1.40;;;20.40;50.30;;;;;;5046017;28;20166;-80
2021/08/24 12:05:25;;;;;;;1.90;1.50;;;20.40;50.10;;;;;;5012520;28;20193;-79
2021/08/24 12:08:04;;;;;;;1.95;1.50;;;20.40;50.50;;;;;;5028981;28;20170;-80
2021/08/24 12:10:32;;;;;;;1.60;1.25;;;20.40;50.40;;;;;;5096437;28;20182;-79
2021/08/24 12:13:09;;;;;;;2.13;1.60;;;20.40;50.40;;;;;;5046326;28;20154;-79
2021/08/24 12:15:40;;;;;;;1.73;1.40;;;20.50;50.20;;;;;;5012445;28;20221;-79
2021/08/24 12:18:24;;;;;;;2.17;1.65;;;20.50;50.20;;;;;;5030297;28;20205;-79
2021/08/24 12:21:22;;;;;;;4.57;1.95;;;20.60;50.10;;;;;;5015272;28;20230;-80
2021/08/24 12:23:48;;;;;;;2.30;1.80;;;20.50;50.10;;;;;;5106094;28;20182;-80
2021/08/24 12:26:32;;;;;;;1.83;1.63;;;20.60;50.00;;;;;;5063338;28;20211;-80
2021/08/24 12:29:07;;;;;;;2.50;1.80;;;20.60;50.20;;;;;;5028834;28;20181;-80
2021/08/24 12:31:40;;;;;;;2.03;1.55;;;20.60;50.20;;;;;;5096919;28;20582;-81
2021/08/24 12:34:43;;;;;;;2.13;1.75;;;20.50;50.90;;;;;;5030863;28;20170;-81
2021/08/24 12:37:43;;;;;;;2.08;1.60;;;20.50;50.10;;;;;;5049775;28;20207;-82
2021/08/24 12:40:29;;;;;;;1.60;1.30;;;20.50;50.40;;;;;;5048371;28;20189;-80
2021/08/24 12:43:33;;;;;;;3.42;1.50;;;20.50;50.30;;;;;;5041769;28;20194;-83
2021/08/24 12:46:24;;;;;;;2.30;1.70;;;20.50;50.10;;;;;;5058071;28;20667;-83
2021/08/24 12:49:24;;;;;;;2.10;1.60;;;20.50;50.20;;;;;;5038293;28;20245;-83
2021/08/24 12:51:52;;;;;;;2.45;1.65;;;20.40;50.40;;;;;;5057826;27;20170;-81
2021/08/24 12:54:19;;;;;;;2.75;1.85;;;20.50;50.40;;;;;;5037062;28;20160;-83
2021/08/24 12:56:47;;;;;;;2.38;1.55;;;20.40;50.40;;;;;;5034621;28;20497;-82
2021/08/24 12:59:43;;;;;;;3.00;1.90;;;20.40;50.40;;;;;;5020438;28;20204;-83
2021/08/24 13:02:23;;;;;;;3.30;1.50;;;20.40;50.50;;;;;;5035313;28;20257;-84
2021/08/24 13:05:02;;;;;;;2.45;1.77;;;20.50;50.40;;;;;;5042402;28;20150;-82
2021/08/24 13:07:42;;;;;;;3.10;1.60;;;20.50;50.20;;;;;;5031206;28;20204;-82
2021/08/24 13:10:25;;;;;;;2.90;1.80;;;20.50;50.20;;;;;;5014327;28;20185;-82
2021/08/24 13:12:51;;;;;;;2.88;1.80;;;20.50;50.10;;;;;;5032390;28;20166;-80
2021/08/24 13:15:44;;;;;;;3.58;1.92;;;20.50;50.20;;;;;;5029122;28;20175;-82
2021/08/24 13:18:17;;;;;;;2.13;1.63;;;20.50;50.20;;;;;;5044274;28;20182;-82
2021/08/24 13:20:44;;;;;;;4.55;1.70;;;20.50;50.20;;;;;;5030687;28;20242;-80
2021/08/24 13:23:28;;;;;;;2.28;1.63;;;20.40;50.10;;;;;;5028757;28;20169;-81
2021/08/24 13:26:00;;;;;;;3.33;1.88;;;20.40;50.20;;;;;;5075494;28;20185;-82